createdAt,value
2024-03-08T00:00:19.131Z,18.50
2024-03-08T00:02:47.584Z,18.40
2024-03-08T00:05:16.207Z,19.60
2024-03-08T00:07:44.858Z,17.80
2024-03-08T00:10:15.370Z,18.80
2024-03-08T00:12:48.088Z,20.00
2024-03-08T00:15:19.844Z,18.90
2024-03-08T00:17:48.888Z,18.10
2024-03-08T00:20:19.826Z,18.40
2024-03-08T00:22:48.314Z,19.10
2024-03-08T00:25:16.284Z,19.50
2024-03-08T00:27:43.934Z,18.50
2024-03-08T00:30:14.191Z,17.20
2024-03-08T00:32:42.342Z,18.10
2024-03-08T00:35:12.812Z,19.80
2024-03-08T00:37:40.280Z,18.40
2024-03-08T00:40:11.173Z,18.90
2024-03-08T00:42:39.756Z,18.10
2024-03-08T00:45:07.785Z,20.10
2024-03-08T00:47:35.561Z,19.40
2024-03-08T00:50:05.404Z,19.30
2024-03-08T00:52:33.267Z,19.90
2024-03-08T00:55:00.843Z,19.90
2024-03-08T00:57:29.219Z,20.00
2024-03-08T00:59:57.499Z,19.00
2024-03-08T01:02:25.269Z,20.60
2024-03-08T01:04:52.802Z,19.60
2024-03-08T01:07:20.554Z,20.80
2024-03-08T01:09:48.006Z,19.50
2024-03-08T01:12:16.151Z,18.60
2024-03-08T01:14:44.687Z,19.50
2024-03-08T01:17:13.168Z,20.80
2024-03-08T01:19:40.770Z,19.90
2024-03-08T01:22:08.776Z,19.90
2024-03-08T01:24:36.197Z,20.70
2024-03-08T01:27:04.748Z,19.20
2024-03-08T01:29:32.270Z,18.90
2024-03-08T01:32:02.927Z,21.00
2024-03-08T01:34:31.035Z,20.70
2024-03-08T01:36:58.788Z,21.00
2024-03-08T01:39:26.635Z,22.20
2024-03-08T01:41:55.473Z,20.80
2024-03-08T01:44:23.275Z,21.50
2024-03-08T01:46:53.541Z,21.20
2024-03-08T01:49:23.035Z,20.90
2024-03-08T01:51:51.152Z,20.60
2024-03-08T01:54:21.143Z,21.70
2024-03-08T01:56:49.387Z,19.80
2024-03-08T01:59:17.775Z,20.00
2024-03-08T02:01:45.580Z,20.70
2024-03-08T02:04:12.996Z,20.90
2024-03-08T02:06:40.676Z,21.50
2024-03-08T02:09:08.431Z,21.40
2024-03-08T02:11:37.687Z,20.40
2024-03-08T02:14:07.534Z,22.10
2024-03-08T02:16:35.176Z,21.00
2024-03-08T02:19:02.592Z,20.50
2024-03-08T02:21:31.084Z,21.10
2024-03-08T02:23:58.622Z,21.90
2024-03-08T02:26:26.154Z,21.10
2024-03-08T02:28:53.661Z,21.90
2024-03-08T02:31:21.867Z,20.60
2024-03-08T02:33:49.930Z,21.20
2024-03-08T02:36:17.721Z,21.40
2024-03-08T02:38:45.524Z,21.90
2024-03-08T02:41:13.442Z,22.50
2024-03-08T02:43:40.924Z,20.20
2024-03-08T02:46:08.381Z,20.80
2024-03-08T02:48:36.668Z,21.30
2024-03-08T02:51:05.182Z,21.20
2024-03-08T02:53:32.702Z,21.20
2024-03-08T02:56:00.276Z,20.40
2024-03-08T02:58:28.354Z,21.80
2024-03-08T03:00:56.295Z,21.10
2024-03-08T03:03:23.804Z,20.40
2024-03-08T03:05:51.301Z,21.20
2024-03-08T03:08:19.249Z,22.30
2024-03-08T03:10:47.290Z,20.50
2024-03-08T03:13:20.690Z,20.70
2024-03-08T03:15:48.175Z,20.70
2024-03-08T03:18:16.907Z,22.40
2024-03-08T03:20:45.633Z,20.40
2024-03-08T03:23:16.587Z,22.10
2024-03-08T03:25:44.830Z,20.60
2024-03-08T03:28:16.029Z,21.00
2024-03-08T03:33:13.958Z,21.00
2024-03-08T03:35:42.767Z,20.10
2024-03-08T03:38:11.806Z,21.20
2024-03-08T03:40:42.416Z,21.00
2024-03-08T03:43:11.453Z,21.30
2024-03-08T03:45:42.831Z,21.80
2024-03-08T03:48:11.784Z,22.10
2024-03-08T03:50:41.008Z,20.70
2024-03-08T03:53:10.940Z,21.00
2024-03-08T03:55:41.259Z,20.80
2024-03-08T03:58:11.966Z,20.70
2024-03-08T04:00:40.648Z,19.80
2024-03-08T04:03:10.000Z,21.10
2024-03-08T04:05:38.242Z,20.70
2024-03-08T04:08:06.021Z,21.00
2024-03-08T04:10:33.516Z,21.70
2024-03-08T04:13:00.981Z,21.20
2024-03-08T04:15:28.399Z,20.30
2024-03-08T04:17:56.396Z,21.20
2024-03-08T04:20:23.982Z,21.80
2024-03-08T04:22:51.428Z,21.40
2024-03-08T04:25:19.228Z,20.30
2024-03-08T04:27:48.328Z,22.20
2024-03-08T04:30:16.179Z,20.30
2024-03-08T04:32:44.365Z,20.70
2024-03-08T04:35:13.998Z,19.90
2024-03-08T04:37:41.953Z,21.00
2024-03-08T04:40:09.953Z,21.20
2024-03-08T04:42:40.815Z,22.80
2024-03-08T04:45:12.398Z,22.10
2024-03-08T04:47:40.555Z,23.60
2024-03-08T04:50:10.207Z,20.70
2024-03-08T04:52:38.041Z,21.20
2024-03-08T04:55:06.960Z,20.70
2024-03-08T04:57:34.505Z,22.70
2024-03-08T05:00:12.682Z,22.00
2024-03-08T05:02:40.786Z,21.00
2024-03-08T05:05:11.982Z,21.80
2024-03-08T05:07:42.667Z,21.60
2024-03-08T05:10:10.342Z,22.00
2024-03-08T05:12:39.891Z,21.00
2024-03-08T05:15:08.921Z,21.00
2024-03-08T05:17:36.867Z,21.20
2024-03-08T05:20:05.207Z,20.00
2024-03-08T05:22:32.690Z,21.70
2024-03-08T05:25:00.270Z,20.80
2024-03-08T05:27:29.562Z,20.10
2024-03-08T05:29:57.072Z,20.60
2024-03-08T05:32:26.940Z,22.20
2024-03-08T05:34:55.225Z,21.50
2024-03-08T05:37:23.185Z,20.20
2024-03-08T05:39:50.613Z,21.00
2024-03-08T05:42:18.073Z,21.50
2024-03-08T05:44:45.647Z,21.20
2024-03-08T05:47:13.226Z,23.00
2024-03-08T05:49:40.765Z,21.50
2024-03-08T05:52:08.277Z,19.90
2024-03-08T05:54:35.697Z,22.40
2024-03-08T05:57:03.402Z,20.80
2024-03-08T05:59:30.947Z,20.60
2024-03-08T06:01:58.932Z,21.70
2024-03-08T06:04:26.439Z,21.40
2024-03-08T06:06:56.941Z,21.90
2024-03-08T06:09:25.469Z,22.10
2024-03-08T06:11:55.768Z,20.50
2024-03-08T06:14:24.810Z,21.30
2024-03-08T06:16:52.572Z,21.70
2024-03-08T06:19:20.127Z,20.90
2024-03-08T06:21:47.642Z,20.90
2024-03-08T06:24:16.581Z,20.60
2024-03-08T06:26:44.594Z,21.60
2024-03-08T06:29:12.292Z,22.30
2024-03-08T06:31:41.719Z,24.70
2024-03-08T06:34:10.229Z,22.30
2024-03-08T06:36:40.065Z,20.70
2024-03-08T06:39:10.962Z,20.70
2024-03-08T06:41:39.234Z,21.90
2024-03-08T06:44:09.276Z,21.70
2024-03-08T06:46:37.352Z,21.10
2024-03-08T06:49:05.060Z,20.90
2024-03-08T06:51:33.659Z,21.50
2024-03-08T06:54:01.867Z,21.00
2024-03-08T06:56:31.057Z,21.70
2024-03-08T06:58:58.618Z,20.80
2024-03-08T07:01:26.097Z,22.60
2024-03-08T07:03:53.781Z,20.40
2024-03-08T07:06:21.917Z,22.70
2024-03-08T07:08:50.140Z,21.40
2024-03-08T07:11:19.915Z,21.60
2024-03-08T07:13:47.696Z,22.00
2024-03-08T07:16:15.521Z,21.10
2024-03-08T07:18:45.140Z,22.00
2024-03-08T07:21:13.465Z,21.90
2024-03-08T07:23:48.142Z,21.30
2024-03-08T07:26:20.344Z,21.50
2024-03-08T07:28:48.079Z,21.30
2024-03-08T07:31:15.490Z,21.40
2024-03-08T07:33:43.389Z,21.60
2024-03-08T07:36:12.048Z,19.80
2024-03-08T07:38:39.546Z,20.20
2024-03-08T07:41:07.122Z,20.00
2024-03-08T07:43:34.633Z,21.00
2024-03-08T07:46:02.316Z,19.50
2024-03-08T07:48:30.076Z,20.70
2024-03-08T07:50:57.976Z,21.40
2024-03-08T07:53:26.211Z,22.50
2024-03-08T07:55:53.903Z,20.40
2024-03-08T07:58:21.465Z,20.70
2024-03-08T08:00:50.304Z,20.30
2024-03-08T08:03:22.243Z,19.20
2024-03-08T08:05:50.565Z,19.20
2024-03-08T08:08:18.092Z,20.50
2024-03-08T08:10:45.606Z,20.60
2024-03-08T08:13:14.020Z,19.90
2024-03-08T08:15:41.923Z,19.60
2024-03-08T08:18:11.141Z,19.50
2024-03-08T08:20:38.862Z,19.40
2024-03-08T08:23:07.288Z,19.10
2024-03-08T08:25:36.067Z,18.50
2024-03-08T08:28:05.703Z,17.80
2024-03-08T08:30:36.325Z,17.40
2024-03-08T08:33:06.675Z,18.10
2024-03-08T08:35:34.453Z,18.30
2024-03-08T08:38:02.355Z,17.40
2024-03-08T08:40:32.007Z,17.40
2024-03-08T08:43:00.880Z,17.80
2024-03-08T08:45:28.532Z,16.00
2024-03-08T08:47:56.421Z,16.50
2024-03-08T08:50:25.042Z,16.80
2024-03-08T08:52:53.034Z,15.10
2024-03-08T08:55:22.933Z,15.90
2024-03-08T08:57:51.926Z,16.90
2024-03-08T09:00:25.304Z,15.90
2024-03-08T09:02:56.296Z,15.00
2024-03-08T09:05:25.563Z,14.60
2024-03-08T09:07:54.263Z,13.80
2024-03-08T09:10:22.882Z,13.30
2024-03-08T09:12:50.442Z,12.20
2024-03-08T09:15:19.043Z,12.40
2024-03-08T09:17:46.707Z,11.90
2024-03-08T09:20:16.922Z,11.90
2024-03-08T09:22:48.002Z,12.90
2024-03-08T09:27:43.064Z,12.60
2024-03-08T09:30:14.611Z,11.70
2024-03-08T09:32:45.047Z,11.50
2024-03-08T09:35:12.826Z,11.00
2024-03-08T09:37:40.782Z,11.90
2024-03-08T09:40:11.280Z,10.10
2024-03-08T09:42:39.644Z,10.70
2024-03-08T09:45:16.900Z,11.70
2024-03-08T09:47:45.925Z,11.80
2024-03-08T09:50:19.091Z,10.70
2024-03-08T09:52:49.896Z,9.60
2024-03-08T09:55:19.149Z,10.70
2024-03-08T09:58:09.179Z,10.40
2024-03-08T10:00:36.749Z,9.50
2024-03-08T10:03:04.630Z,9.30
2024-03-08T10:05:33.734Z,9.80
2024-03-08T10:08:01.539Z,9.70
2024-03-08T10:10:29.093Z,9.80
2024-03-08T10:12:57.757Z,10.30
2024-03-08T10:15:25.514Z,9.00
2024-03-08T10:17:54.475Z,9.40
2024-03-08T10:20:22.131Z,9.30
2024-03-08T10:22:58.543Z,10.20
2024-03-08T10:25:36.633Z,9.70
2024-03-08T10:28:06.142Z,9.80
2024-03-08T10:30:33.901Z,8.90
2024-03-08T10:33:02.555Z,9.30
2024-03-08T10:35:30.131Z,8.50
2024-03-08T10:37:59.982Z,9.00
2024-03-08T10:40:29.531Z,9.30
2024-03-08T10:43:00.713Z,8.50
2024-03-08T10:45:36.717Z,8.10
2024-03-08T10:48:35.741Z,8.40
2024-03-08T10:51:06.771Z,8.10
2024-03-08T10:53:35.407Z,8.20
2024-03-08T10:56:03.761Z,8.90
2024-03-08T10:58:33.188Z,7.60
2024-03-08T11:01:00.751Z,7.60
2024-03-08T11:03:45.201Z,7.60
2024-03-08T11:06:19.811Z,7.00
2024-03-08T11:08:47.626Z,8.40
2024-03-08T11:11:32.076Z,7.60
2024-03-08T11:14:03.829Z,7.70
2024-03-08T11:16:34.390Z,9.80
2024-03-08T11:19:11.850Z,9.30
2024-03-08T11:21:43.074Z,9.40
2024-03-08T11:26:42.350Z,7.30
2024-03-08T11:29:28.510Z,8.10
2024-03-08T11:32:29.367Z,7.80
2024-03-08T11:34:57.103Z,7.50
2024-03-08T11:37:24.966Z,7.80
2024-03-08T11:40:00.413Z,8.50
2024-03-08T11:42:28.589Z,7.40
2024-03-08T11:44:56.184Z,7.80
2024-03-08T11:47:24.085Z,8.50
2024-03-08T11:49:52.019Z,9.10
2024-03-08T11:52:20.262Z,8.50
2024-03-08T11:54:59.013Z,8.00
2024-03-08T11:57:27.708Z,8.20
2024-03-08T11:59:59.848Z,8.40
2024-03-08T12:02:28.948Z,7.60
2024-03-08T12:05:02.115Z,7.70
2024-03-08T12:07:33.544Z,8.60
2024-03-08T12:12:57.365Z,7.80
2024-03-08T12:15:25.797Z,6.80
2024-03-08T12:17:57.197Z,7.10
2024-03-08T12:20:28.127Z,7.70
2024-03-08T12:22:58.077Z,8.10
2024-03-08T12:25:33.551Z,7.10
2024-03-08T12:28:17.065Z,7.30
2024-03-08T12:30:49.778Z,8.30
2024-03-08T12:33:18.122Z,6.90
2024-03-08T12:35:56.923Z,6.90
2024-03-08T12:38:29.083Z,7.60
2024-03-08T12:40:59.921Z,7.20
2024-03-08T12:43:31.838Z,7.10
2024-03-08T12:46:00.667Z,7.00
2024-03-08T12:48:28.111Z,7.30
2024-03-08T12:50:56.184Z,6.70
2024-03-08T12:53:24.725Z,6.50
2024-03-08T12:55:53.703Z,6.00
2024-03-08T12:58:22.719Z,6.10
2024-03-08T13:00:53.818Z,6.30
2024-03-08T13:03:24.181Z,7.80
2024-03-08T13:05:51.904Z,7.50
2024-03-08T13:08:19.385Z,6.20
2024-03-08T13:10:47.155Z,6.30
2024-03-08T13:13:18.577Z,5.80
2024-03-08T13:15:46.726Z,5.60
2024-03-08T13:18:14.296Z,6.00
2024-03-08T13:20:48.078Z,6.20
2024-03-08T13:23:16.173Z,5.60
2024-03-08T13:25:43.721Z,5.80
2024-03-08T13:28:12.290Z,5.70
2024-03-08T13:30:40.179Z,4.60
2024-03-08T13:33:08.464Z,4.20
2024-03-08T13:35:36.545Z,4.00
2024-03-08T13:38:05.938Z,4.50
2024-03-08T13:40:33.915Z,3.90
2024-03-08T13:43:02.640Z,4.00
2024-03-08T13:45:30.290Z,4.30
2024-03-08T13:47:57.969Z,4.40
2024-03-08T13:50:27.187Z,3.80
2024-03-08T13:52:56.068Z,3.50
2024-03-08T13:55:28.200Z,3.70
2024-03-08T13:57:58.704Z,3.30
2024-03-08T14:00:34.425Z,3.00
2024-03-08T14:03:01.986Z,2.60
2024-03-08T14:05:32.832Z,2.90
2024-03-08T14:08:02.262Z,2.50
2024-03-08T14:10:29.762Z,2.40
2024-03-08T14:12:57.281Z,2.40
2024-03-08T14:15:26.143Z,2.80
2024-03-08T14:17:55.311Z,2.70
2024-03-08T14:20:27.046Z,2.90
2024-03-08T14:22:57.975Z,2.70
2024-03-08T14:25:26.401Z,2.90
2024-03-08T14:27:55.432Z,3.10
2024-03-08T14:30:39.667Z,2.60
2024-03-08T14:33:10.581Z,2.90
2024-03-08T14:35:39.859Z,2.70
2024-03-08T14:38:12.043Z,2.80
2024-03-08T14:40:40.557Z,3.20
2024-03-08T14:43:08.109Z,2.60
2024-03-08T14:45:36.385Z,2.70
2024-03-08T14:48:06.114Z,3.10
2024-03-08T14:50:34.632Z,2.80
2024-03-08T14:53:02.703Z,2.80
2024-03-08T14:55:31.798Z,2.80
2024-03-08T14:57:59.383Z,2.70
2024-03-08T15:00:36.885Z,2.60
2024-03-08T15:03:08.355Z,2.70
2024-03-08T15:05:39.704Z,2.50
2024-03-08T15:08:12.150Z,2.50
2024-03-08T15:10:42.455Z,2.30
2024-03-08T15:13:22.613Z,2.40
2024-03-08T15:15:58.595Z,2.10
2024-03-08T15:18:32.079Z,2.00
2024-03-08T15:20:59.709Z,2.80
2024-03-08T15:23:27.683Z,2.50
2024-03-08T15:25:55.954Z,2.40
2024-03-08T15:28:28.364Z,2.50
2024-03-08T15:30:57.118Z,2.30
2024-03-08T15:33:28.673Z,2.10
2024-03-08T15:36:01.679Z,2.10
2024-03-08T15:38:29.301Z,2.60
2024-03-08T15:40:57.430Z,2.10
2024-03-08T15:43:26.549Z,3.00
2024-03-08T15:45:56.016Z,2.30
2024-03-08T15:48:23.726Z,1.70
2024-03-08T15:50:52.079Z,2.10
2024-03-08T15:53:20.080Z,1.80
2024-03-08T15:55:48.633Z,2.20
2024-03-08T15:58:16.285Z,2.00
2024-03-08T16:00:47.402Z,1.90
2024-03-08T16:05:45.673Z,2.50
2024-03-08T16:08:19.277Z,1.60
2024-03-08T16:10:52.310Z,2.20
2024-03-08T16:13:22.374Z,1.90
2024-03-08T16:15:52.337Z,1.80
2024-03-08T16:18:24.453Z,2.00
2024-03-08T16:20:54.180Z,2.00
2024-03-08T16:23:24.274Z,2.10
2024-03-08T16:25:52.051Z,1.50
2024-03-08T16:28:20.151Z,1.80
2024-03-08T16:30:49.204Z,1.60
2024-03-08T16:33:19.596Z,1.80
2024-03-08T16:35:47.948Z,1.80
2024-03-08T16:38:16.183Z,1.70
2024-03-08T16:40:46.069Z,1.90
2024-03-08T16:43:15.383Z,2.10
2024-03-08T16:45:43.848Z,2.10
2024-03-08T16:48:12.272Z,1.50
2024-03-08T16:50:42.620Z,1.50
2024-03-08T16:53:13.003Z,1.70
2024-03-08T16:55:41.602Z,1.40
2024-03-08T16:58:16.238Z,1.90
2024-03-08T17:00:44.228Z,1.60
2024-03-08T17:03:14.894Z,1.70
2024-03-08T17:05:55.793Z,1.60
2024-03-08T17:08:24.480Z,1.80
2024-03-08T17:10:52.598Z,2.00
2024-03-08T17:13:20.487Z,1.80
2024-03-08T17:15:50.108Z,1.60
2024-03-08T17:18:18.230Z,1.60
2024-03-08T17:20:46.274Z,2.20
2024-03-08T17:23:15.277Z,1.70
2024-03-08T17:25:44.218Z,1.60
2024-03-08T17:28:13.865Z,1.70
2024-03-08T17:30:42.232Z,1.40
2024-03-08T17:33:11.765Z,1.80
2024-03-08T17:35:39.874Z,1.80
2024-03-08T17:38:14.188Z,1.70
2024-03-08T17:40:45.324Z,1.50
2024-03-08T17:45:45.973Z,2.20
2024-03-08T17:48:14.515Z,2.20
2024-03-08T17:50:43.608Z,2.70
2024-03-08T17:53:12.707Z,2.20
2024-03-08T17:55:43.950Z,2.30
2024-03-08T18:00:41.424Z,2.10
2024-03-08T18:03:17.540Z,2.20
2024-03-08T18:05:46.688Z,2.30
2024-03-08T18:08:15.080Z,2.10
2024-03-08T18:10:43.623Z,2.50
2024-03-08T18:13:15.159Z,2.40
2024-03-08T18:15:44.980Z,3.00
2024-03-08T18:18:13.571Z,2.60
2024-03-08T18:20:49.531Z,2.40
2024-03-08T18:23:22.212Z,2.90
2024-03-08T18:25:51.672Z,2.60
2024-03-08T18:28:20.062Z,3.00
2024-03-08T18:30:50.757Z,3.00
2024-03-08T18:33:19.326Z,3.10
2024-03-08T18:35:49.026Z,2.70
2024-03-08T18:38:20.354Z,2.90
2024-03-08T18:43:18.965Z,2.70
2024-03-08T18:45:47.233Z,2.30
2024-03-08T18:48:15.331Z,2.40
2024-03-08T18:50:46.558Z,2.30
2024-03-08T18:55:44.787Z,2.90
2024-03-08T18:58:12.589Z,2.30
2024-03-08T19:00:40.657Z,2.30
2024-03-08T19:03:14.849Z,2.10
2024-03-08T19:05:43.620Z,2.00
2024-03-08T19:08:15.472Z,1.80
2024-03-08T19:10:44.792Z,1.90
2024-03-08T19:13:16.084Z,1.30
2024-03-08T19:15:44.446Z,1.70
2024-03-08T19:18:14.824Z,1.70
2024-03-08T19:20:44.001Z,1.80
2024-03-08T19:23:12.132Z,2.00
2024-03-08T19:25:45.618Z,1.60
2024-03-08T19:28:14.894Z,1.70
2024-03-08T19:30:43.761Z,2.20
2024-03-08T19:33:15.595Z,1.90
2024-03-08T19:35:43.688Z,2.10
2024-03-08T19:38:12.891Z,1.80
2024-03-08T19:40:45.276Z,1.80
2024-03-08T19:43:16.419Z,1.50
2024-03-08T19:45:45.128Z,1.60
2024-03-08T19:48:21.296Z,1.70
2024-03-08T19:50:50.990Z,1.60
2024-03-08T19:53:19.431Z,1.40
2024-03-08T19:55:52.755Z,2.40
2024-03-08T19:58:21.870Z,1.80
2024-03-08T20:00:50.471Z,2.60
2024-03-08T20:03:23.488Z,1.90
2024-03-08T20:05:55.293Z,2.50
2024-03-08T20:08:29.420Z,2.10
2024-03-08T20:10:59.606Z,2.00
2024-03-08T20:13:27.538Z,2.90
2024-03-08T20:15:55.757Z,2.30
2024-03-08T20:18:28.039Z,2.40
2024-03-08T20:20:57.068Z,1.70
2024-03-08T20:23:25.494Z,1.90
2024-03-08T20:25:53.670Z,1.80
2024-03-08T20:28:21.390Z,1.90
2024-03-08T20:30:49.035Z,2.00
2024-03-08T20:33:17.681Z,1.90
2024-03-08T20:35:51.685Z,1.60
2024-03-08T20:38:23.380Z,1.90
2024-03-08T20:40:53.487Z,1.40
2024-03-08T20:43:29.791Z,1.70
2024-03-08T20:45:58.968Z,1.40
2024-03-08T20:48:26.527Z,1.60
2024-03-08T20:50:54.945Z,1.90
2024-03-08T20:53:22.471Z,1.90
2024-03-08T20:55:53.428Z,1.50
2024-03-08T20:58:27.070Z,1.80
2024-03-08T21:01:00.113Z,1.70
2024-03-08T21:03:29.844Z,1.40
2024-03-08T21:05:59.735Z,1.70
2024-03-08T21:08:28.950Z,1.70
2024-03-08T21:10:58.997Z,1.30
2024-03-08T21:13:27.682Z,1.50
2024-03-08T21:15:56.852Z,1.50
2024-03-08T21:18:27.882Z,2.00
2024-03-08T21:20:57.141Z,1.60
2024-03-08T21:23:26.675Z,1.50
2024-03-08T21:25:54.483Z,1.60
2024-03-08T21:28:30.111Z,1.60
2024-03-08T21:31:00.475Z,1.60
2024-03-08T21:33:28.181Z,1.40
2024-03-08T21:35:55.660Z,1.40
2024-03-08T21:38:26.737Z,1.30
2024-03-08T21:43:30.645Z,1.40
2024-03-08T21:45:58.445Z,1.20
2024-03-08T21:48:27.545Z,1.10
2024-03-08T21:50:56.680Z,1.40
2024-03-08T21:53:31.002Z,1.60
2024-03-08T21:56:03.575Z,1.30
2024-03-08T21:58:34.377Z,1.30
2024-03-08T22:01:02.543Z,1.10
2024-03-08T22:03:32.699Z,1.40
2024-03-08T22:06:00.531Z,1.00
2024-03-08T22:08:28.101Z,1.10
2024-03-08T22:10:57.465Z,1.10
2024-03-08T22:13:25.170Z,1.30
2024-03-08T22:15:53.088Z,1.20
2024-03-08T22:18:20.904Z,1.40
2024-03-08T22:20:48.524Z,1.30
2024-03-08T22:23:18.153Z,1.00
2024-03-08T22:25:47.492Z,1.20
2024-03-08T22:28:16.474Z,1.20
2024-03-08T22:30:44.027Z,1.30
2024-03-08T22:33:11.587Z,1.40
2024-03-08T22:35:39.177Z,1.50
2024-03-08T22:38:08.870Z,1.40
2024-03-08T22:40:39.070Z,1.30
2024-03-08T22:43:08.130Z,1.30
2024-03-08T22:45:35.885Z,1.20
2024-03-08T22:48:05.176Z,1.10
2024-03-08T22:50:34.341Z,1.30
2024-03-08T22:53:02.552Z,1.10
2024-03-08T22:55:31.904Z,1.30
2024-03-08T22:57:59.612Z,1.30
2024-03-08T23:00:28.092Z,1.30
2024-03-08T23:02:58.228Z,1.20
2024-03-08T23:05:28.965Z,1.30
2024-03-08T23:08:01.699Z,1.80
2024-03-08T23:10:31.390Z,1.50
2024-03-08T23:12:59.645Z,1.40
2024-03-08T23:15:29.752Z,1.60
2024-03-08T23:18:00.927Z,1.80
2024-03-08T23:20:36.410Z,1.50
2024-03-08T23:23:07.051Z,1.30
2024-03-08T23:25:36.990Z,1.40
2024-03-08T23:28:08.410Z,1.50
2024-03-08T23:30:44.669Z,2.40
2024-03-08T23:33:14.717Z,1.60
2024-03-08T23:35:45.114Z,1.80
2024-03-08T23:38:12.997Z,1.90
2024-03-08T23:40:42.847Z,1.80
2024-03-08T23:43:10.482Z,1.70
2024-03-08T23:45:39.536Z,2.10
2024-03-08T23:48:08.511Z,2.20
2024-03-08T23:50:38.260Z,2.00
2024-03-08T23:53:09.396Z,2.00
2024-03-08T23:55:39.685Z,2.00
2024-03-08T23:58:11.506Z,2.10
